sensor_id;sensor_type;location;lat;lon;timestamp;P1;durP1;ratioP1;P2;durP2;ratioP2
66739;SDS011;53653;52.188;8.602;2022-08-21T00:02:22;15.55;;;5.20;;
66739;SDS011;53653;52.188;8.602;2022-08-21T00:04:49;12.38;;;5.45;;
66739;SDS011;53653;52.188;8.602;2022-08-21T00:07:15;12.80;;;5.65;;
66739;SDS011;53653;52.188;8.602;2022-08-21T00:09:41;12.00;;;5.47;;
66739;SDS011;53653;52.188;8.602;2022-08-21T00:12:07;12.77;;;5.82;;
66739;SDS011;53653;52.188;8.602;2022-08-21T00:14:33;15.60;;;6.10;;
66739;SDS011;53653;52.188;8.602;2022-08-21T00:16:59;13.80;;;6.00;;
66739;SDS011;53653;52.188;8.602;2022-08-21T00:19:25;12.25;;;5.80;;
66739;SDS011;53653;52.188;8.602;2022-08-21T00:21:52;16.98;;;6.40;;
66739;SDS011;53653;52.188;8.602;2022-08-21T00:24:20;13.10;;;6.10;;
66739;SDS011;53653;52.188;8.602;2022-08-21T00:26:46;12.00;;;5.88;;
66739;SDS011;53653;52.188;8.602;2022-08-21T00:29:12;12.18;;;5.82;;
66739;SDS011;53653;52.188;8.602;2022-08-21T00:31:38;14.25;;;5.85;;
66739;SDS011;53653;52.188;8.602;2022-08-21T00:34:04;10.77;;;5.03;;
66739;SDS011;53653;52.188;8.602;2022-08-21T00:36:30;14.63;;;5.43;;
66739;SDS011;53653;52.188;8.602;2022-08-21T00:38:56;13.07;;;5.47;;
66739;SDS011;53653;52.188;8.602;2022-08-21T00:41:22;11.95;;;5.47;;
66739;SDS011;53653;52.188;8.602;2022-08-21T00:43:48;17.10;;;5.78;;
66739;SDS011;53653;52.188;8.602;2022-08-21T00:46:15;13.35;;;5.00;;
66739;SDS011;53653;52.188;8.602;2022-08-21T00:48:41;13.83;;;5.57;;
66739;SDS011;53653;52.188;8.602;2022-08-21T00:51:08;12.10;;;5.35;;
66739;SDS011;53653;52.188;8.602;2022-08-21T00:53:38;11.10;;;5.27;;
66739;SDS011;53653;52.188;8.602;2022-08-21T00:56:06;12.95;;;5.30;;
66739;SDS011;53653;52.188;8.602;2022-08-21T00:58:34;13.55;;;5.80;;
66739;SDS011;53653;52.188;8.602;2022-08-21T01:01:01;11.80;;;5.07;;
66739;SDS011;53653;52.188;8.602;2022-08-21T01:03:29;9.18;;;4.93;;
66739;SDS011;53653;52.188;8.602;2022-08-21T01:05:55;10.93;;;5.00;;
66739;SDS011;53653;52.188;8.602;2022-08-21T01:08:20;10.00;;;4.40;;
66739;SDS011;53653;52.188;8.602;2022-08-21T01:10:47;9.95;;;4.32;;
66739;SDS011;53653;52.188;8.602;2022-08-21T01:13:14;9.50;;;4.60;;
66739;SDS011;53653;52.188;8.602;2022-08-21T01:15:42;14.18;;;4.93;;
66739;SDS011;53653;52.188;8.602;2022-08-21T01:18:11;10.13;;;4.60;;
66739;SDS011;53653;52.188;8.602;2022-08-21T01:20:41;10.32;;;5.03;;
66739;SDS011;53653;52.188;8.602;2022-08-21T01:23:11;9.43;;;4.93;;
66739;SDS011;53653;52.188;8.602;2022-08-21T01:25:36;10.90;;;4.30;;
66739;SDS011;53653;52.188;8.602;2022-08-21T01:28:04;10.43;;;5.03;;
66739;SDS011;53653;52.188;8.602;2022-08-21T01:30:34;12.32;;;5.80;;
66739;SDS011;53653;52.188;8.602;2022-08-21T01:33:01;12.07;;;5.10;;
66739;SDS011;53653;52.188;8.602;2022-08-21T01:35:27;10.73;;;5.30;;
66739;SDS011;53653;52.188;8.602;2022-08-21T01:37:53;14.98;;;5.70;;
66739;SDS011;53653;52.188;8.602;2022-08-21T01:40:18;15.33;;;6.30;;
66739;SDS011;53653;52.188;8.602;2022-08-21T01:42:47;16.02;;;6.25;;
66739;SDS011;53653;52.188;8.602;2022-08-21T01:45:13;14.85;;;5.80;;
66739;SDS011;53653;52.188;8.602;2022-08-21T01:47:41;17.93;;;6.13;;
66739;SDS011;53653;52.188;8.602;2022-08-21T01:50:07;17.80;;;6.40;;
66739;SDS011;53653;52.188;8.602;2022-08-21T01:52:35;15.10;;;6.82;;
66739;SDS011;53653;52.188;8.602;2022-08-21T01:55:00;17.03;;;7.40;;
66739;SDS011;53653;52.188;8.602;2022-08-21T01:57:26;15.50;;;7.35;;
66739;SDS011;53653;52.188;8.602;2022-08-21T01:59:52;19.83;;;7.43;;
66739;SDS011;53653;52.188;8.602;2022-08-21T02:02:17;15.70;;;6.38;;
66739;SDS011;53653;52.188;8.602;2022-08-21T02:04:43;13.97;;;6.20;;
66739;SDS011;53653;52.188;8.602;2022-08-21T02:07:08;15.90;;;5.93;;
66739;SDS011;53653;52.188;8.602;2022-08-21T02:09:34;14.77;;;6.47;;
66739;SDS011;53653;52.188;8.602;2022-08-21T02:11:59;12.37;;;6.50;;
66739;SDS011;53653;52.188;8.602;2022-08-21T02:14:25;12.97;;;6.30;;
66739;SDS011;53653;52.188;8.602;2022-08-21T02:16:50;14.82;;;6.85;;
66739;SDS011;53653;52.188;8.602;2022-08-21T02:19:16;15.67;;;6.67;;
66739;SDS011;53653;52.188;8.602;2022-08-21T02:21:42;16.27;;;7.00;;
66739;SDS011;53653;52.188;8.602;2022-08-21T02:24:08;15.98;;;6.20;;
66739;SDS011;53653;52.188;8.602;2022-08-21T02:26:33;12.83;;;6.17;;
66739;SDS011;53653;52.188;8.602;2022-08-21T02:28:59;13.43;;;6.25;;
66739;SDS011;53653;52.188;8.602;2022-08-21T02:31:25;17.17;;;6.80;;
66739;SDS011;53653;52.188;8.602;2022-08-21T02:33:51;14.57;;;6.88;;
66739;SDS011;53653;52.188;8.602;2022-08-21T02:36:16;12.90;;;6.67;;
66739;SDS011;53653;52.188;8.602;2022-08-21T02:38:44;19.55;;;7.20;;
66739;SDS011;53653;52.188;8.602;2022-08-21T02:41:14;15.65;;;7.28;;
66739;SDS011;53653;52.188;8.602;2022-08-21T02:43:42;15.43;;;6.97;;
66739;SDS011;53653;52.188;8.602;2022-08-21T02:46:08;15.73;;;6.75;;
66739;SDS011;53653;52.188;8.602;2022-08-21T02:48:35;15.35;;;6.82;;
66739;SDS011;53653;52.188;8.602;2022-08-21T02:51:06;18.63;;;6.80;;
66739;SDS011;53653;52.188;8.602;2022-08-21T02:53:34;14.05;;;6.57;;
66739;SDS011;53653;52.188;8.602;2022-08-21T02:56:01;16.55;;;6.70;;
66739;SDS011;53653;52.188;8.602;2022-08-21T02:58:36;15.30;;;6.65;;
66739;SDS011;53653;52.188;8.602;2022-08-21T03:01:06;15.48;;;6.60;;
66739;SDS011;53653;52.188;8.602;2022-08-21T03:03:36;12.50;;;6.37;;
66739;SDS011;53653;52.188;8.602;2022-08-21T03:06:04;16.35;;;6.40;;
66739;SDS011;53653;52.188;8.602;2022-08-21T03:08:30;14.93;;;6.78;;
66739;SDS011;53653;52.188;8.602;2022-08-21T03:10:56;12.70;;;6.20;;
66739;SDS011;53653;52.188;8.602;2022-08-21T03:13:21;10.27;;;5.68;;
66739;SDS011;53653;52.188;8.602;2022-08-21T03:15:48;11.00;;;5.68;;
66739;SDS011;53653;52.188;8.602;2022-08-21T03:18:15;15.33;;;5.77;;
66739;SDS011;53653;52.188;8.602;2022-08-21T03:20:41;13.85;;;6.00;;
66739;SDS011;53653;52.188;8.602;2022-08-21T03:23:08;16.50;;;6.50;;
66739;SDS011;53653;52.188;8.602;2022-08-21T03:25:35;16.95;;;6.50;;
66739;SDS011;53653;52.188;8.602;2022-08-21T03:28:01;13.13;;;6.13;;
66739;SDS011;53653;52.188;8.602;2022-08-21T03:30:28;12.70;;;6.20;;
66739;SDS011;53653;52.188;8.602;2022-08-21T03:32:56;13.95;;;6.70;;
66739;SDS011;53653;52.188;8.602;2022-08-21T03:35:23;12.82;;;6.55;;
66739;SDS011;53653;52.188;8.602;2022-08-21T03:37:48;16.73;;;6.40;;
66739;SDS011;53653;52.188;8.602;2022-08-21T03:40:15;15.13;;;7.18;;
66739;SDS011;53653;52.188;8.602;2022-08-21T03:42:42;12.40;;;6.53;;
66739;SDS011;53653;52.188;8.602;2022-08-21T03:45:08;12.45;;;6.70;;
66739;SDS011;53653;52.188;8.602;2022-08-21T03:47:34;11.05;;;6.20;;
66739;SDS011;53653;52.188;8.602;2022-08-21T03:50:01;13.23;;;6.80;;
66739;SDS011;53653;52.188;8.602;2022-08-21T03:52:29;14.70;;;6.75;;
66739;SDS011;53653;52.188;8.602;2022-08-21T03:54:55;14.47;;;6.47;;
66739;SDS011;53653;52.188;8.602;2022-08-21T03:57:20;14.35;;;7.05;;
66739;SDS011;53653;52.188;8.602;2022-08-21T03:59:46;15.10;;;6.93;;
66739;SDS011;53653;52.188;8.602;2022-08-21T04:02:21;17.60;;;7.72;;
66739;SDS011;53653;52.188;8.602;2022-08-21T04:04:47;14.45;;;7.03;;
66739;SDS011;53653;52.188;8.602;2022-08-21T04:07:12;16.47;;;7.63;;
66739;SDS011;53653;52.188;8.602;2022-08-21T04:09:37;14.33;;;7.70;;
66739;SDS011;53653;52.188;8.602;2022-08-21T04:12:03;14.68;;;7.43;;
66739;SDS011;53653;52.188;8.602;2022-08-21T04:14:31;15.93;;;7.50;;
66739;SDS011;53653;52.188;8.602;2022-08-21T04:16:57;14.23;;;8.00;;
66739;SDS011;53653;52.188;8.602;2022-08-21T04:19:23;13.00;;;7.40;;
66739;SDS011;53653;52.188;8.602;2022-08-21T04:21:48;17.60;;;8.13;;
66739;SDS011;53653;52.188;8.602;2022-08-21T04:24:14;19.17;;;8.40;;
66739;SDS011;53653;52.188;8.602;2022-08-21T04:26:40;14.02;;;8.30;;
66739;SDS011;53653;52.188;8.602;2022-08-21T04:29:05;14.33;;;8.43;;
66739;SDS011;53653;52.188;8.602;2022-08-21T04:31:34;15.65;;;8.70;;
66739;SDS011;53653;52.188;8.602;2022-08-21T04:34:02;19.08;;;8.20;;
66739;SDS011;53653;52.188;8.602;2022-08-21T04:36:29;21.17;;;9.07;;
66739;SDS011;53653;52.188;8.602;2022-08-21T04:38:55;19.30;;;8.57;;
66739;SDS011;53653;52.188;8.602;2022-08-21T04:41:21;15.75;;;8.43;;
66739;SDS011;53653;52.188;8.602;2022-08-21T04:43:46;18.07;;;8.67;;
66739;SDS011;53653;52.188;8.602;2022-08-21T04:46:11;15.47;;;7.80;;
66739;SDS011;53653;52.188;8.602;2022-08-21T04:48:37;17.33;;;9.03;;
66739;SDS011;53653;52.188;8.602;2022-08-21T04:51:05;17.83;;;8.50;;
66739;SDS011;53653;52.188;8.602;2022-08-21T04:53:43;15.40;;;8.10;;
66739;SDS011;53653;52.188;8.602;2022-08-21T04:56:11;14.40;;;8.23;;
66739;SDS011;53653;52.188;8.602;2022-08-21T04:58:40;19.25;;;8.98;;
66739;SDS011;53653;52.188;8.602;2022-08-21T05:01:08;16.27;;;8.10;;
66739;SDS011;53653;52.188;8.602;2022-08-21T05:03:38;15.65;;;8.75;;
66739;SDS011;53653;52.188;8.602;2022-08-21T05:06:08;22.03;;;8.03;;
66739;SDS011;53653;52.188;8.602;2022-08-21T05:08:36;13.63;;;7.50;;
66739;SDS011;53653;52.188;8.602;2022-08-21T05:11:03;18.95;;;8.07;;
66739;SDS011;53653;52.188;8.602;2022-08-21T05:13:29;17.92;;;7.47;;
66739;SDS011;53653;52.188;8.602;2022-08-21T05:15:54;13.63;;;7.83;;
66739;SDS011;53653;52.188;8.602;2022-08-21T05:18:20;15.45;;;7.95;;
66739;SDS011;53653;52.188;8.602;2022-08-21T05:20:46;14.80;;;8.10;;
66739;SDS011;53653;52.188;8.602;2022-08-21T05:23:12;15.67;;;7.70;;
66739;SDS011;53653;52.188;8.602;2022-08-21T05:25:39;14.32;;;8.00;;
66739;SDS011;53653;52.188;8.602;2022-08-21T05:28:05;16.00;;;8.25;;
66739;SDS011;53653;52.188;8.602;2022-08-21T05:30:31;18.35;;;7.95;;
66739;SDS011;53653;52.188;8.602;2022-08-21T05:32:58;16.23;;;8.50;;
66739;SDS011;53653;52.188;8.602;2022-08-21T05:35:24;17.03;;;8.43;;
66739;SDS011;53653;52.188;8.602;2022-08-21T05:37:50;14.35;;;8.23;;
66739;SDS011;53653;52.188;8.602;2022-08-21T05:40:15;17.30;;;8.53;;
66739;SDS011;53653;52.188;8.602;2022-08-21T05:42:41;17.15;;;9.13;;
66739;SDS011;53653;52.188;8.602;2022-08-21T05:45:06;19.30;;;9.13;;
66739;SDS011;53653;52.188;8.602;2022-08-21T05:47:32;14.75;;;8.68;;
66739;SDS011;53653;52.188;8.602;2022-08-21T05:49:57;18.90;;;9.47;;
66739;SDS011;53653;52.188;8.602;2022-08-21T05:52:23;17.70;;;9.60;;
66739;SDS011;53653;52.188;8.602;2022-08-21T05:54:48;18.57;;;9.50;;
66739;SDS011;53653;52.188;8.602;2022-08-21T05:57:14;19.45;;;9.43;;
66739;SDS011;53653;52.188;8.602;2022-08-21T05:59:40;15.27;;;9.48;;
66739;SDS011;53653;52.188;8.602;2022-08-21T06:02:06;19.95;;;9.40;;
66739;SDS011;53653;52.188;8.602;2022-08-21T06:04:36;16.30;;;9.60;;
66739;SDS011;53653;52.188;8.602;2022-08-21T06:07:02;21.23;;;9.70;;
66739;SDS011;53653;52.188;8.602;2022-08-21T06:09:28;21.08;;;10.05;;
66739;SDS011;53653;52.188;8.602;2022-08-21T06:11:54;15.77;;;9.67;;
66739;SDS011;53653;52.188;8.602;2022-08-21T06:14:19;21.00;;;9.37;;
66739;SDS011;53653;52.188;8.602;2022-08-21T06:16:44;18.83;;;9.27;;
66739;SDS011;53653;52.188;8.602;2022-08-21T06:19:10;18.13;;;9.13;;
66739;SDS011;53653;52.188;8.602;2022-08-21T06:21:35;19.77;;;9.33;;
66739;SDS011;53653;52.188;8.602;2022-08-21T06:24:01;22.10;;;10.27;;
66739;SDS011;53653;52.188;8.602;2022-08-21T06:26:26;15.52;;;9.40;;
66739;SDS011;53653;52.188;8.602;2022-08-21T06:28:53;17.73;;;9.63;;
66739;SDS011;53653;52.188;8.602;2022-08-21T06:31:23;18.43;;;10.30;;
66739;SDS011;53653;52.188;8.602;2022-08-21T06:33:50;18.83;;;10.05;;
66739;SDS011;53653;52.188;8.602;2022-08-21T06:36:15;19.52;;;9.90;;
66739;SDS011;53653;52.188;8.602;2022-08-21T06:38:43;18.85;;;9.77;;
66739;SDS011;53653;52.188;8.602;2022-08-21T06:41:10;17.20;;;9.50;;
66739;SDS011;53653;52.188;8.602;2022-08-21T06:43:35;18.52;;;9.80;;
66739;SDS011;53653;52.188;8.602;2022-08-21T06:46:01;18.98;;;10.52;;
66739;SDS011;53653;52.188;8.602;2022-08-21T06:48:27;16.70;;;8.80;;
66739;SDS011;53653;52.188;8.602;2022-08-21T06:50:52;15.63;;;9.27;;
66739;SDS011;53653;52.188;8.602;2022-08-21T06:53:18;15.50;;;8.50;;
66739;SDS011;53653;52.188;8.602;2022-08-21T06:55:45;16.67;;;9.57;;
66739;SDS011;53653;52.188;8.602;2022-08-21T06:58:12;15.68;;;9.52;;
66739;SDS011;53653;52.188;8.602;2022-08-21T07:00:40;14.23;;;8.38;;
66739;SDS011;53653;52.188;8.602;2022-08-21T07:03:07;17.08;;;8.98;;
66739;SDS011;53653;52.188;8.602;2022-08-21T07:05:43;15.07;;;8.37;;
66739;SDS011;53653;52.188;8.602;2022-08-21T07:08:09;14.05;;;7.88;;
66739;SDS011;53653;52.188;8.602;2022-08-21T07:10:34;15.83;;;7.87;;
66739;SDS011;53653;52.188;8.602;2022-08-21T07:12:59;13.93;;;7.93;;
66739;SDS011;53653;52.188;8.602;2022-08-21T07:15:25;14.73;;;8.02;;
66739;SDS011;53653;52.188;8.602;2022-08-21T07:17:51;16.00;;;7.60;;
66739;SDS011;53653;52.188;8.602;2022-08-21T07:20:16;14.17;;;7.70;;
66739;SDS011;53653;52.188;8.602;2022-08-21T07:22:42;14.82;;;7.60;;
66739;SDS011;53653;52.188;8.602;2022-08-21T07:25:09;14.90;;;7.20;;
66739;SDS011;53653;52.188;8.602;2022-08-21T07:27:34;12.90;;;7.00;;
66739;SDS011;53653;52.188;8.602;2022-08-21T07:29:59;16.07;;;7.53;;
66739;SDS011;53653;52.188;8.602;2022-08-21T07:32:25;13.43;;;7.43;;
66739;SDS011;53653;52.188;8.602;2022-08-21T07:34:50;19.10;;;7.47;;
66739;SDS011;53653;52.188;8.602;2022-08-21T07:37:16;12.30;;;6.40;;
66739;SDS011;53653;52.188;8.602;2022-08-21T07:39:41;12.02;;;5.65;;
66739;SDS011;53653;52.188;8.602;2022-08-21T07:42:07;15.90;;;6.53;;
66739;SDS011;53653;52.188;8.602;2022-08-21T07:44:33;13.63;;;5.75;;
66739;SDS011;53653;52.188;8.602;2022-08-21T07:46:59;10.77;;;5.00;;
66739;SDS011;53653;52.188;8.602;2022-08-21T07:49:26;10.38;;;4.75;;
66739;SDS011;53653;52.188;8.602;2022-08-21T07:51:52;11.20;;;4.88;;
66739;SDS011;53653;52.188;8.602;2022-08-21T07:54:18;11.93;;;5.07;;
66739;SDS011;53653;52.188;8.602;2022-08-21T07:56:43;12.35;;;4.70;;
66739;SDS011;53653;52.188;8.602;2022-08-21T07:59:11;11.10;;;4.65;;
66739;SDS011;53653;52.188;8.602;2022-08-21T08:01:37;15.40;;;4.87;;
66739;SDS011;53653;52.188;8.602;2022-08-21T08:04:02;12.10;;;4.50;;
66739;SDS011;53653;52.188;8.602;2022-08-21T08:06:29;9.97;;;4.17;;
66739;SDS011;53653;52.188;8.602;2022-08-21T08:08:55;11.52;;;4.00;;
66739;SDS011;53653;52.188;8.602;2022-08-21T08:11:20;12.05;;;4.07;;
66739;SDS011;53653;52.188;8.602;2022-08-21T08:13:48;9.13;;;3.43;;
66739;SDS011;53653;52.188;8.602;2022-08-21T08:16:15;9.32;;;3.20;;
66739;SDS011;53653;52.188;8.602;2022-08-21T08:18:42;7.90;;;3.40;;
66739;SDS011;53653;52.188;8.602;2022-08-21T08:21:08;10.20;;;3.80;;
66739;SDS011;53653;52.188;8.602;2022-08-21T08:23:35;8.33;;;3.40;;
66739;SDS011;53653;52.188;8.602;2022-08-21T08:26:00;8.32;;;3.38;;
66739;SDS011;53653;52.188;8.602;2022-08-21T08:28:28;10.05;;;3.25;;
66739;SDS011;53653;52.188;8.602;2022-08-21T08:30:54;7.93;;;2.93;;
66739;SDS011;53653;52.188;8.602;2022-08-21T08:33:20;9.55;;;3.20;;
66739;SDS011;53653;52.188;8.602;2022-08-21T08:35:47;10.88;;;3.38;;
66739;SDS011;53653;52.188;8.602;2022-08-21T08:38:15;10.75;;;3.22;;
66739;SDS011;53653;52.188;8.602;2022-08-21T08:43:16;8.73;;;2.87;;
66739;SDS011;53653;52.188;8.602;2022-08-21T08:45:43;10.07;;;2.95;;
66739;SDS011;53653;52.188;8.602;2022-08-21T08:48:13;10.88;;;2.58;;
66739;SDS011;53653;52.188;8.602;2022-08-21T08:50:52;11.35;;;3.30;;
66739;SDS011;53653;52.188;8.602;2022-08-21T08:53:32;8.65;;;2.80;;
66739;SDS011;53653;52.188;8.602;2022-08-21T08:56:01;10.50;;;2.63;;
66739;SDS011;53653;52.188;8.602;2022-08-21T08:58:30;6.93;;;2.30;;
66739;SDS011;53653;52.188;8.602;2022-08-21T09:00:57;9.15;;;2.63;;
66739;SDS011;53653;52.188;8.602;2022-08-21T09:03:24;13.50;;;2.83;;
66739;SDS011;53653;52.188;8.602;2022-08-21T09:27:17;6.40;;;2.80;;
66739;SDS011;53653;52.188;8.602;2022-08-21T09:29:49;10.90;;;2.70;;
66739;SDS011;53653;52.188;8.602;2022-08-21T09:35:14;8.85;;;2.80;;
66739;SDS011;53653;52.188;8.602;2022-08-21T09:37:58;9.52;;;2.78;;
66739;SDS011;53653;52.188;8.602;2022-08-21T09:40:30;8.83;;;2.90;;
66739;SDS011;53653;52.188;8.602;2022-08-21T09:43:03;8.50;;;2.80;;
66739;SDS011;53653;52.188;8.602;2022-08-21T09:45:31;10.57;;;2.70;;
66739;SDS011;53653;52.188;8.602;2022-08-21T09:50:44;10.73;;;2.70;;
66739;SDS011;53653;52.188;8.602;2022-08-21T09:53:20;11.20;;;2.80;;
66739;SDS011;53653;52.188;8.602;2022-08-21T09:55:52;12.68;;;2.75;;
66739;SDS011;53653;52.188;8.602;2022-08-21T09:58:46;9.70;;;2.97;;
66739;SDS011;53653;52.188;8.602;2022-08-21T10:01:15;11.77;;;3.03;;
66739;SDS011;53653;52.188;8.602;2022-08-21T10:03:46;8.50;;;3.10;;
66739;SDS011;53653;52.188;8.602;2022-08-21T10:06:23;9.87;;;2.80;;
66739;SDS011;53653;52.188;8.602;2022-08-21T10:09:02;8.43;;;2.85;;
66739;SDS011;53653;52.188;8.602;2022-08-21T10:11:39;11.43;;;2.90;;
66739;SDS011;53653;52.188;8.602;2022-08-21T10:17:28;11.45;;;3.33;;
66739;SDS011;53653;52.188;8.602;2022-08-21T10:25:41;9.00;;;3.22;;
66739;SDS011;53653;52.188;8.602;2022-08-21T10:28:31;8.82;;;3.33;;
66739;SDS011;53653;52.188;8.602;2022-08-21T10:39:03;10.70;;;4.80;;
66739;SDS011;53653;52.188;8.602;2022-08-21T10:47:34;11.67;;;5.90;;
66739;SDS011;53653;52.188;8.602;2022-08-21T10:50:27;10.57;;;5.90;;
66739;SDS011;53653;52.188;8.602;2022-08-21T10:55:55;9.38;;;5.63;;
66739;SDS011;53653;52.188;8.602;2022-08-21T11:00:55;10.50;;;6.20;;
66739;SDS011;53653;52.188;8.602;2022-08-21T11:03:29;11.38;;;6.22;;
66739;SDS011;53653;52.188;8.602;2022-08-21T11:06:02;9.90;;;5.57;;
66739;SDS011;53653;52.188;8.602;2022-08-21T11:08:31;10.18;;;5.10;;
66739;SDS011;53653;52.188;8.602;2022-08-21T11:13:40;10.73;;;5.30;;
66739;SDS011;53653;52.188;8.602;2022-08-21T11:16:18;8.68;;;4.65;;
66739;SDS011;53653;52.188;8.602;2022-08-21T11:21:46;9.23;;;4.32;;
66739;SDS011;53653;52.188;8.602;2022-08-21T11:26:58;8.67;;;4.37;;
66739;SDS011;53653;52.188;8.602;2022-08-21T11:29:44;10.65;;;4.63;;
66739;SDS011;53653;52.188;8.602;2022-08-21T11:38:16;11.77;;;4.13;;
66739;SDS011;53653;52.188;8.602;2022-08-21T11:57:09;11.05;;;4.68;;
66739;SDS011;53653;52.188;8.602;2022-08-21T11:59:43;8.07;;;4.78;;
66739;SDS011;53653;52.188;8.602;2022-08-21T12:02:14;10.55;;;4.35;;
66739;SDS011;53653;52.188;8.602;2022-08-21T12:04:53;11.30;;;4.78;;
66739;SDS011;53653;52.188;8.602;2022-08-21T12:07:35;9.87;;;4.93;;
66739;SDS011;53653;52.188;8.602;2022-08-21T12:10:03;10.27;;;5.13;;
66739;SDS011;53653;52.188;8.602;2022-08-21T12:12:33;10.70;;;5.35;;
66739;SDS011;53653;52.188;8.602;2022-08-21T12:15:42;11.40;;;4.78;;
66739;SDS011;53653;52.188;8.602;2022-08-21T12:17:56;18.25;;;6.90;;
66739;SDS011;53653;52.188;8.602;2022-08-21T12:23:02;11.48;;;5.78;;
66739;SDS011;53653;52.188;8.602;2022-08-21T12:25:35;13.35;;;6.10;;
66739;SDS011;53653;52.188;8.602;2022-08-21T12:28:10;9.52;;;5.35;;
66739;SDS011;53653;52.188;8.602;2022-08-21T12:30:39;10.65;;;5.57;;
66739;SDS011;53653;52.188;8.602;2022-08-21T12:35:42;11.27;;;6.50;;
66739;SDS011;53653;52.188;8.602;2022-08-21T12:40:46;11.32;;;6.47;;
66739;SDS011;53653;52.188;8.602;2022-08-21T12:43:13;12.00;;;6.55;;
66739;SDS011;53653;52.188;8.602;2022-08-21T12:45:44;10.23;;;6.73;;
66739;SDS011;53653;52.188;8.602;2022-08-21T12:56:16;10.77;;;4.90;;
66739;SDS011;53653;52.188;8.602;2022-08-21T12:58:54;9.45;;;4.95;;
66739;SDS011;53653;52.188;8.602;2022-08-21T13:04:14;9.90;;;4.60;;
66739;SDS011;53653;52.188;8.602;2022-08-21T13:06:43;9.68;;;4.90;;
66739;SDS011;53653;52.188;8.602;2022-08-21T13:09:12;8.02;;;3.60;;
66739;SDS011;53653;52.188;8.602;2022-08-21T13:11:42;7.93;;;3.10;;
66739;SDS011;53653;52.188;8.602;2022-08-21T13:14:31;11.77;;;3.30;;
66739;SDS011;53653;52.188;8.602;2022-08-21T13:17:04;8.57;;;3.03;;
66739;SDS011;53653;52.188;8.602;2022-08-21T13:19:31;9.60;;;3.88;;
66739;SDS011;53653;52.188;8.602;2022-08-21T13:21:58;8.10;;;3.67;;
66739;SDS011;53653;52.188;8.602;2022-08-21T13:26:52;9.65;;;2.78;;
66739;SDS011;53653;52.188;8.602;2022-08-21T13:29:20;10.60;;;2.63;;
66739;SDS011;53653;52.188;8.602;2022-08-21T13:32:06;9.00;;;2.75;;
66739;SDS011;53653;52.188;8.602;2022-08-21T13:34:43;9.27;;;2.50;;
66739;SDS011;53653;52.188;8.602;2022-08-21T13:37:08;6.83;;;2.83;;
66739;SDS011;53653;52.188;8.602;2022-08-21T13:39:36;6.60;;;2.70;;
66739;SDS011;53653;52.188;8.602;2022-08-21T13:42:04;9.57;;;3.08;;
66739;SDS011;53653;52.188;8.602;2022-08-21T13:44:39;8.43;;;2.80;;
66739;SDS011;53653;52.188;8.602;2022-08-21T13:47:08;7.10;;;2.80;;
66739;SDS011;53653;52.188;8.602;2022-08-21T13:49:42;9.20;;;2.80;;
66739;SDS011;53653;52.188;8.602;2022-08-21T13:54:50;9.85;;;3.13;;
66739;SDS011;53653;52.188;8.602;2022-08-21T13:57:19;8.98;;;3.03;;
66739;SDS011;53653;52.188;8.602;2022-08-21T13:59:49;8.48;;;3.10;;
66739;SDS011;53653;52.188;8.602;2022-08-21T14:02:20;9.40;;;3.00;;
66739;SDS011;53653;52.188;8.602;2022-08-21T14:07:29;8.05;;;2.80;;
66739;SDS011;53653;52.188;8.602;2022-08-21T14:10:02;9.25;;;3.10;;
66739;SDS011;53653;52.188;8.602;2022-08-21T14:12:37;8.88;;;3.20;;
66739;SDS011;53653;52.188;8.602;2022-08-21T14:15:07;8.73;;;3.30;;
66739;SDS011;53653;52.188;8.602;2022-08-21T14:17:36;8.30;;;3.00;;
66739;SDS011;53653;52.188;8.602;2022-08-21T14:20:08;7.88;;;2.95;;
66739;SDS011;53653;52.188;8.602;2022-08-21T14:25:26;7.07;;;1.90;;
66739;SDS011;53653;52.188;8.602;2022-08-21T14:27:56;6.07;;;1.57;;
66739;SDS011;53653;52.188;8.602;2022-08-21T14:30:28;8.65;;;1.95;;
66739;SDS011;53653;52.188;8.602;2022-08-21T14:32:59;5.65;;;1.77;;
66739;SDS011;53653;52.188;8.602;2022-08-21T14:35:25;6.47;;;1.90;;
66739;SDS011;53653;52.188;8.602;2022-08-21T14:37:51;5.63;;;1.60;;
66739;SDS011;53653;52.188;8.602;2022-08-21T14:40:18;7.80;;;1.65;;
66739;SDS011;53653;52.188;8.602;2022-08-21T14:42:45;5.63;;;1.40;;
66739;SDS011;53653;52.188;8.602;2022-08-21T14:45:15;7.03;;;1.80;;
66739;SDS011;53653;52.188;8.602;2022-08-21T14:47:44;5.97;;;1.80;;
66739;SDS011;53653;52.188;8.602;2022-08-21T14:50:10;4.68;;;1.10;;
66739;SDS011;53653;52.188;8.602;2022-08-21T14:52:36;5.30;;;1.38;;
66739;SDS011;53653;52.188;8.602;2022-08-21T14:55:03;6.03;;;1.23;;
66739;SDS011;53653;52.188;8.602;2022-08-21T14:57:29;4.85;;;1.17;;
66739;SDS011;53653;52.188;8.602;2022-08-21T14:59:56;5.03;;;1.20;;
66739;SDS011;53653;52.188;8.602;2022-08-21T15:02:22;6.22;;;1.30;;
66739;SDS011;53653;52.188;8.602;2022-08-21T15:04:48;6.50;;;1.27;;
66739;SDS011;53653;52.188;8.602;2022-08-21T15:07:13;5.22;;;1.20;;
66739;SDS011;53653;52.188;8.602;2022-08-21T15:09:39;5.57;;;1.20;;
66739;SDS011;53653;52.188;8.602;2022-08-21T15:12:05;4.70;;;1.13;;
66739;SDS011;53653;52.188;8.602;2022-08-21T15:14:32;5.18;;;1.38;;
66739;SDS011;53653;52.188;8.602;2022-08-21T15:17:00;4.03;;;1.13;;
66739;SDS011;53653;52.188;8.602;2022-08-21T15:19:28;7.40;;;1.80;;
66739;SDS011;53653;52.188;8.602;2022-08-21T15:21:54;4.93;;;1.20;;
66739;SDS011;53653;52.188;8.602;2022-08-21T15:24:20;5.20;;;1.30;;
66739;SDS011;53653;52.188;8.602;2022-08-21T15:26:45;7.28;;;1.60;;
66739;SDS011;53653;52.188;8.602;2022-08-21T15:29:12;5.60;;;1.40;;
66739;SDS011;53653;52.188;8.602;2022-08-21T15:31:40;5.25;;;1.50;;
66739;SDS011;53653;52.188;8.602;2022-08-21T15:34:17;7.60;;;1.55;;
66739;SDS011;53653;52.188;8.602;2022-08-21T15:36:42;6.77;;;1.53;;
66739;SDS011;53653;52.188;8.602;2022-08-21T15:39:08;5.18;;;1.50;;
66739;SDS011;53653;52.188;8.602;2022-08-21T15:41:33;7.30;;;1.60;;
66739;SDS011;53653;52.188;8.602;2022-08-21T15:44:01;7.18;;;1.70;;
66739;SDS011;53653;52.188;8.602;2022-08-21T15:46:27;7.97;;;1.50;;
66739;SDS011;53653;52.188;8.602;2022-08-21T15:48:52;6.60;;;1.50;;
66739;SDS011;53653;52.188;8.602;2022-08-21T15:51:18;5.40;;;1.53;;
66739;SDS011;53653;52.188;8.602;2022-08-21T15:53:44;5.60;;;1.60;;
66739;SDS011;53653;52.188;8.602;2022-08-21T15:56:55;5.75;;;1.55;;
66739;SDS011;53653;52.188;8.602;2022-08-21T15:59:01;7.03;;;1.90;;
66739;SDS011;53653;52.188;8.602;2022-08-21T16:01:30;5.88;;;1.60;;
66739;SDS011;53653;52.188;8.602;2022-08-21T16:03:55;6.40;;;1.97;;
66739;SDS011;53653;52.188;8.602;2022-08-21T16:06:21;6.13;;;1.83;;
66739;SDS011;53653;52.188;8.602;2022-08-21T16:08:46;6.32;;;2.25;;
66739;SDS011;53653;52.188;8.602;2022-08-21T16:11:12;7.10;;;1.77;;
66739;SDS011;53653;52.188;8.602;2022-08-21T16:13:40;8.30;;;1.80;;
66739;SDS011;53653;52.188;8.602;2022-08-21T16:16:08;5.25;;;1.80;;
66739;SDS011;53653;52.188;8.602;2022-08-21T16:18:36;4.87;;;1.87;;
66739;SDS011;53653;52.188;8.602;2022-08-21T16:21:02;6.75;;;1.70;;
66739;SDS011;53653;52.188;8.602;2022-08-21T16:23:27;6.15;;;1.60;;
66739;SDS011;53653;52.188;8.602;2022-08-21T16:25:53;7.20;;;1.80;;
66739;SDS011;53653;52.188;8.602;2022-08-21T16:28:19;5.50;;;1.40;;
66739;SDS011;53653;52.188;8.602;2022-08-21T16:30:46;5.78;;;1.60;;
66739;SDS011;53653;52.188;8.602;2022-08-21T16:33:24;5.05;;;1.80;;
66739;SDS011;53653;52.188;8.602;2022-08-21T16:35:55;5.47;;;1.77;;
66739;SDS011;53653;52.188;8.602;2022-08-21T16:38:21;7.47;;;2.10;;
66739;SDS011;53653;52.188;8.602;2022-08-21T16:40:46;5.43;;;1.95;;
66739;SDS011;53653;52.188;8.602;2022-08-21T16:43:12;7.90;;;3.70;;